Time;durP1;ratioP1;P1;durP2;ratioP2;P2;SDS_P1;SDS_P2;PMS_P1;PMS_P2;Temp;Humidity;BMP_temperature;BMP_pressure;BME280_temperature;BME280_humidity;BME280_pressure;Samples;Min_cycle;Max_cycle;Signal;HPM_P1;HPM_P2
2023/11/03 00:01:13;;;;;;;8.77;1.67;;;;;;;-146.27;94.06;83722.28;5030448;28;20039;-74
2023/11/03 00:03:38;;;;;;;6.60;1.70;;;;;;;-146.27;93.79;83794.63;5030676;28;20029;-74
2023/11/03 00:06:04;;;;;;;6.28;1.60;;;;;;;-146.27;93.81;83788.59;5026382;28;20032;-74
2023/11/03 00:08:33;;;;;;;7.75;1.75;;;;;;;-146.27;93.96;83742.38;5025962;28;20048;-74
2023/11/03 00:11:00;;;;;;;9.93;1.48;;;;;;;-146.27;93.34;83738.34;5018816;28;20014;-75
2023/11/03 00:13:25;;;;;;;7.57;1.67;;;;;;;-146.27;93.52;83692.13;5019285;28;20628;-75
2023/11/03 00:15:51;;;;;;;5.25;1.33;;;;;;;-146.27;93.83;83784.56;5021038;28;20041;-75
2023/11/03 00:18:16;;;;;;;2.90;1.00;;;;;;;-146.27;93.33;83684.09;5026862;28;20030;-76
2023/11/03 00:20:42;;;;;;;3.83;1.30;;;;;;;-146.27;93.41;83752.41;5023628;28;20151;-75
2023/11/03 00:23:07;;;;;;;3.85;1.10;;;;;;;-146.27;94.84;83802.66;5018088;28;20029;-76
2023/11/03 00:25:33;;;;;;;4.10;1.48;;;;;;;-146.27;93.64;83742.38;5027814;28;20043;-75
2023/11/03 00:27:58;;;;;;;5.78;1.20;;;;;;;-146.27;94.64;83758.44;5027986;28;20041;-75
2023/11/03 00:30:24;;;;;;;9.13;1.70;;;;;;;-146.27;94.19;83782.56;5037593;28;20063;-74
2023/11/03 00:32:49;;;;;;;5.95;1.73;;;;;;;-146.27;94.64;83704.19;5033681;28;20285;-75
2023/11/03 00:35:14;;;;;;;5.05;1.77;;;;;;;-146.27;94.55;83746.38;5029893;28;20048;-76
2023/11/03 00:37:40;;;;;;;12.95;2.05;;;;;;;-146.27;95.18;83798.63;5027661;28;20042;-75
2023/11/03 00:40:11;;;;;;;6.88;1.77;;;;;;;-146.27;94.35;83738.34;5034230;28;20021;-75
2023/11/03 00:42:37;;;;;;;6.25;1.60;;;;;;;-146.27;93.98;83702.19;5031545;28;20033;-75
2023/11/03 00:45:04;;;;;;;4.53;1.88;;;;;;;-146.27;94.47;83726.28;5024654;28;20032;-76
2023/11/03 00:47:29;;;;;;;4.82;2.10;;;;;;;-146.27;94.61;83750.41;5027637;28;20634;-76
2023/11/03 00:49:55;;;;;;;5.30;1.70;;;;;;;-146.27;93.74;83692.13;5033182;28;20039;-74
2023/11/03 00:52:20;;;;;;;4.20;1.60;;;;;;;-146.27;95.18;83798.63;5021558;28;20032;-75
2023/11/03 00:54:45;;;;;;;4.55;1.98;;;;;;;-146.27;95.17;83728.31;5038597;28;20033;-75
2023/11/03 00:57:11;;;;;;;9.07;1.80;;;;;;;-146.27;95.40;83730.31;5020903;28;20128;-75
2023/11/03 00:59:36;;;;;;;4.40;1.75;;;;;;;-146.27;94.36;83700.16;5040049;28;20061;-76
2023/11/03 01:02:04;;;;;;;4.95;1.98;;;;;;;-146.27;94.56;83708.22;5029544;28;20414;-77
2023/11/03 01:04:29;;;;;;;8.18;1.83;;;;;;;-146.27;94.33;83722.28;5021798;28;20037;-77
2023/11/03 01:06:55;;;;;;;7.70;2.75;;;;;;;-146.27;94.06;83702.19;5018996;28;20029;-77
2023/11/03 01:09:22;;;;;;;4.95;1.83;;;;;;;-146.27;95.04;83746.38;5021433;28;20030;-77
2023/11/03 01:11:47;;;;;;;6.88;3.63;;;;;;;-146.27;95.37;83784.56;5034237;28;20792;-77
2023/11/03 01:14:13;;;;;;;6.38;1.85;;;;;;;-146.27;95.93;83754.44;5029082;28;20029;-78
2023/11/03 01:16:41;;;;;;;10.00;2.55;;;;;;;-146.27;95.38;83740.34;5032067;28;20441;-77
2023/11/03 01:19:09;;;;;;;9.10;2.33;;;;;;;-146.27;95.55;83754.44;5027003;28;20451;-77
2023/11/03 01:21:39;;;;;;;7.45;2.55;;;;;;;-146.27;95.14;83746.38;5039137;28;20030;-77
2023/11/03 01:24:06;;;;;;;6.45;2.55;;;;;;;-146.27;95.61;83738.34;5032073;28;20155;-77
2023/11/03 01:26:33;;;;;;;9.45;2.25;;;;;;;-146.27;95.53;83740.34;5020464;28;20100;-76
2023/11/03 01:28:59;;;;;;;3.30;2.10;;;;;;;-146.27;94.48;83712.22;5019612;28;20061;-76
2023/11/03 01:31:24;;;;;;;6.75;2.35;;;;;;;-146.27;95.63;83740.34;5038570;28;20550;-77
2023/11/03 01:33:50;;;;;;;5.82;2.72;;;;;;;-146.27;94.55;83672.03;5032171;28;20088;-77
2023/11/03 01:36:15;;;;;;;10.18;3.03;;;;;;;-146.27;94.83;83700.16;5019895;28;20095;-77
2023/11/03 01:38:41;;;;;;;7.40;3.13;;;;;;;-146.27;94.78;83704.19;5036625;28;20030;-76
2023/11/03 01:41:08;;;;;;;10.82;3.35;;;;;;;-146.27;94.97;83706.19;5021151;28;20034;-76
2023/11/03 01:43:35;;;;;;;7.32;2.95;;;;;;;-146.27;94.25;83649.94;5029303;28;20118;-76
2023/11/03 01:46:02;;;;;;;7.05;2.67;;;;;;;-146.27;94.31;83678.06;5028053;28;20018;-77
2023/11/03 01:48:29;;;;;;;5.55;2.58;;;;;;;-146.27;94.95;83678.06;5026749;28;20044;-75
2023/11/03 01:50:58;;;;;;;8.52;3.15;;;;;;;-146.27;95.27;83682.09;5038512;28;20029;-76
2023/11/03 01:53:26;;;;;;;9.48;2.40;;;;;;;-146.27;95.20;83674.03;5011603;28;20033;-76
2023/11/03 01:55:52;;;;;;;14.30;2.35;;;;;;;-146.27;94.48;83633.84;5027485;28;20025;-76
2023/11/03 01:58:18;;;;;;;17.23;1.92;;;;;;;-146.27;94.33;83609.75;5026301;28;20023;-75
2023/11/03 02:00:44;;;;;;;10.05;2.00;;;;;;;-146.27;94.24;83635.88;5026633;28;20021;-76
2023/11/03 02:03:09;;;;;;;11.80;2.35;;;;;;;-146.27;94.43;83637.88;5024488;28;20418;-76
2023/11/03 02:05:34;;;;;;;13.25;2.00;;;;;;;-146.27;93.92;83583.63;5025086;28;20079;-76
2023/11/03 02:08:00;;;;;;;12.07;2.15;;;;;;;-146.27;93.67;83609.75;5025992;28;20080;-76
2023/11/03 02:10:25;;;;;;;15.30;2.40;;;;;;;-146.27;93.65;83581.59;5018980;28;20104;-76
2023/11/03 02:12:51;;;;;;;21.92;3.42;;;;;;;-146.27;93.06;83561.53;5024745;28;20397;-76
2023/11/03 02:15:16;;;;;;;11.23;1.80;;;;;;;-146.27;92.79;83557.50;5017101;28;20033;-76
2023/11/03 02:17:42;;;;;;;9.40;1.73;;;;;;;-146.27;93.70;83557.50;5023933;28;20152;-75
2023/11/03 02:20:08;;;;;;;22.30;2.03;;;;;;;-146.27;93.39;83575.59;5023640;28;20037;-75
2023/11/03 02:22:38;;;;;;;10.75;2.17;;;;;;;-146.27;94.01;83589.66;5027074;28;20046;-76
2023/11/03 02:25:04;;;;;;;6.82;1.50;;;;;;;-146.27;94.77;83585.63;5021921;28;20025;-76
2023/11/03 02:27:29;;;;;;;11.23;1.70;;;;;;;-146.27;94.62;83553.47;5030348;28;20022;-76
2023/11/03 02:29:55;;;;;;;8.60;1.23;;;;;;;-146.27;94.46;83597.69;5025833;28;20064;-76
2023/11/03 02:32:21;;;;;;;9.50;1.58;;;;;;;-146.27;94.51;83625.81;5028002;28;20034;-76
2023/11/03 02:34:46;;;;;;;7.65;0.95;;;;;;;-146.27;95.37;83617.78;5026848;28;20054;-75
2023/11/03 02:37:11;;;;;;;7.07;1.95;;;;;;;-146.27;94.79;83569.56;5010132;28;20033;-75
2023/11/03 02:39:40;;;;;;;8.90;1.48;;;;;;;-146.27;94.03;83545.44;5022073;28;20044;-74
2023/11/03 02:42:06;;;;;;;14.57;1.35;;;;;;;-146.27;93.68;83515.31;5019648;28;20040;-75
2023/11/03 02:44:31;;;;;;;11.65;1.65;;;;;;;-146.27;94.54;83547.44;5022622;28;20029;-74
2023/11/03 02:46:57;;;;;;;12.27;1.70;;;;;;;-146.27;94.90;83529.38;5016065;28;20040;-75
2023/11/03 02:49:22;;;;;;;13.25;1.92;;;;;;;-146.27;95.18;83585.63;5030205;28;20044;-75
2023/11/03 02:51:47;;;;;;;12.23;1.80;;;;;;;-146.27;94.99;83563.53;5028698;28;20029;-75
2023/11/03 02:54:14;;;;;;;14.93;1.92;;;;;;;-146.27;95.85;83607.72;5033552;28;20238;-75
2023/11/03 02:56:40;;;;;;;15.45;1.75;;;;;;;-146.27;94.50;83541.41;5029274;28;20033;-75
2023/11/03 02:59:06;;;;;;;15.20;1.85;;;;;;;-146.27;94.39;83543.44;5028668;28;20393;-74
2023/11/03 03:01:32;;;;;;;16.92;2.08;;;;;;;-146.27;94.88;83613.75;5019620;28;20025;-75
2023/11/03 03:03:58;;;;;;;13.10;2.20;;;;;;;-146.27;95.49;83633.84;5027763;28;20030;-75
2023/11/03 03:06:23;;;;;;;13.23;1.50;;;;;;;-146.27;94.42;83599.69;5023163;28;20040;-74
2023/11/03 03:08:49;;;;;;;12.48;1.40;;;;;;;-146.27;95.02;83617.78;5018531;28;20115;-74
2023/11/03 03:11:15;;;;;;;14.30;1.65;;;;;;;-146.27;93.81;83547.44;5028364;28;20036;-75
2023/11/03 03:13:41;;;;;;;11.80;1.48;;;;;;;-146.27;94.06;83489.19;5021585;28;20029;-74
2023/11/03 03:16:09;;;;;;;8.43;1.17;;;;;;;-146.27;93.34;83521.34;5013732;28;20105;-74
2023/11/03 03:18:34;;;;;;;8.20;0.90;;;;;;;-146.27;93.41;83603.72;5029623;28;20037;-74
2023/11/03 03:20:59;;;;;;;14.65;1.25;;;;;;;-146.27;93.71;83593.66;5014832;28;20021;-75
2023/11/03 03:23:25;;;;;;;6.40;1.30;;;;;;;-146.27;94.00;83645.91;5034036;28;20037;-76
2023/11/03 03:25:51;;;;;;;3.30;0.80;;;;;;;-146.27;94.50;83613.75;5028899;28;20634;-75
2023/11/03 03:28:16;;;;;;;3.47;0.80;;;;;;;-146.27;94.62;83585.63;5037288;28;20032;-75
2023/11/03 03:30:42;;;;;;;6.25;0.85;;;;;;;-146.27;93.87;83555.50;5024790;28;20505;-76
2023/11/03 03:33:08;;;;;;;7.63;1.10;;;;;;;-146.27;95.23;83641.91;5034179;28;20473;-75
2023/11/03 03:35:33;;;;;;;7.03;2.17;;;;;;;-146.27;94.57;83595.69;5039543;28;20052;-75
2023/11/03 03:37:59;;;;;;;11.02;1.77;;;;;;;-146.27;93.22;83463.06;5040776;28;20396;-75
2023/11/03 03:40:24;;;;;;;11.10;1.63;;;;;;;-146.27;93.54;83563.53;5035326;28;20030;-75
2023/11/03 03:42:50;;;;;;;17.25;2.00;;;;;;;-146.27;93.49;83563.53;5033515;28;20024;-76
2023/11/03 03:45:16;;;;;;;9.85;1.65;;;;;;;-146.27;94.07;83547.44;5025930;28;20033;-75
2023/11/03 03:47:42;;;;;;;16.67;2.03;;;;;;;-146.27;93.84;83551.47;5033343;28;20392;-75
2023/11/03 03:50:08;;;;;;;9.90;1.50;;;;;;;-146.27;93.17;83537.41;5031994;28;20036;-75
2023/11/03 03:52:33;;;;;;;20.52;3.10;;;;;;;-146.27;93.33;83469.09;5029279;28;20116;-75
2023/11/03 03:54:58;;;;;;;10.27;2.13;;;;;;;-146.27;92.90;83497.22;5045062;28;20098;-75
2023/11/03 03:57:24;;;;;;;16.83;2.45;;;;;;;-146.27;93.65;83499.22;5034116;28;20034;-75
2023/11/03 03:59:49;;;;;;;13.77;2.15;;;;;;;-146.27;93.63;83481.16;5040318;28;20029;-75
2023/11/03 04:02:14;;;;;;;22.25;3.33;;;;;;;-146.27;93.62;83440.94;5032730;28;20036;-75
2023/11/03 04:04:40;;;;;;;22.63;2.92;;;;;;;-146.27;95.39;83507.25;5023228;28;20079;-75
2023/11/03 04:07:05;;;;;;;19.15;2.67;;;;;;;-146.27;94.22;83424.88;5021448;28;20036;-75
2023/11/03 04:09:31;;;;;;;23.02;2.70;;;;;;;-146.27;94.99;83489.19;5029467;28;20022;-75
2023/11/03 04:11:56;;;;;;;28.67;2.78;;;;;;;-146.27;94.46;83430.91;5030216;28;20112;-75
2023/11/03 04:14:22;;;;;;;23.30;2.90;;;;;;;-146.27;94.51;83444.97;5023894;28;20029;-75
2023/11/03 04:16:48;;;;;;;23.67;2.97;;;;;;;-146.27;95.50;83436.94;5027356;28;20037;-75
2023/11/03 04:19:14;;;;;;;23.33;2.80;;;;;;;-146.27;95.23;83426.88;5021275;28;20026;-75
2023/11/03 04:21:42;;;;;;;13.20;2.72;;;;;;;-146.27;95.28;83432.91;5023351;28;20394;-75
2023/11/03 04:24:08;;;;;;;22.27;3.17;;;;;;;-146.27;94.54;83469.09;5037163;28;20033;-75
2023/11/03 04:26:33;;;;;;;19.00;3.47;;;;;;;-146.27;94.82;83430.91;5014447;28;20515;-75
2023/11/03 04:28:58;;;;;;;19.75;2.83;;;;;;;-146.27;95.54;83493.19;5011152;28;20036;-75
2023/11/03 04:31:24;;;;;;;22.05;3.78;;;;;;;-146.27;95.64;83430.91;5014408;28;20190;-75
2023/11/03 04:33:49;;;;;;;26.27;3.10;;;;;;;-146.27;94.97;83388.72;5013438;28;20034;-75
2023/11/03 04:36:15;;;;;;;14.98;2.78;;;;;;;-146.27;94.47;83434.94;5024488;28;20028;-75
2023/11/03 04:38:40;;;;;;;21.38;2.97;;;;;;;-146.27;95.50;83449.00;5023731;28;20152;-75
2023/11/03 04:41:06;;;;;;;25.10;2.72;;;;;;;-146.27;95.11;83442.97;5026156;28;20083;-75
2023/11/03 04:43:35;;;;;;;14.77;2.42;;;;;;;-146.27;95.21;83465.06;5022661;28;20453;-75
2023/11/03 04:46:03;;;;;;;33.72;4.50;;;;;;;-146.27;95.69;83517.31;5025322;28;20041;-76
2023/11/03 04:48:30;;;;;;;30.05;3.65;;;;;;;-146.27;94.72;83489.19;5024849;28;20492;-75
2023/11/03 04:50:55;;;;;;;24.92;3.20;;;;;;;-146.27;94.62;83436.94;5038356;28;20452;-75
2023/11/03 04:53:21;;;;;;;26.17;4.05;;;;;;;-146.27;94.58;83451.00;5029089;28;20025;-74
2023/11/03 04:55:46;;;;;;;27.88;3.35;;;;;;;-146.27;94.45;83459.03;5029923;28;20033;-75
2023/11/03 04:58:11;;;;;;;20.45;2.95;;;;;;;-146.27;93.20;83410.81;5029763;28;20591;-75
2023/11/03 05:00:38;;;;;;;22.70;3.42;;;;;;;-146.27;94.00;83465.06;5037051;28;20385;-75
2023/11/03 05:03:04;;;;;;;37.45;3.22;;;;;;;-146.27;93.84;83404.78;5020557;28;20037;-75
2023/11/03 05:05:32;;;;;;;21.85;3.30;;;;;;;-146.27;93.84;83416.84;5017200;28;20504;-75
2023/11/03 05:07:58;;;;;;;32.40;3.63;;;;;;;-146.27;93.55;83451.00;5023890;28;20033;-75
2023/11/03 05:10:23;;;;;;;19.92;3.15;;;;;;;-146.27;93.82;83483.16;5026670;28;20507;-75
2023/11/03 05:12:50;;;;;;;18.02;3.92;;;;;;;-146.27;93.32;83408.81;5031779;28;20022;-75
2023/11/03 05:15:15;;;;;;;24.13;3.90;;;;;;;-146.27;94.17;83477.13;5028127;28;20029;-75
2023/11/03 05:17:40;;;;;;;22.83;3.70;;;;;;;-146.27;94.33;83485.16;5025168;28;20116;-75
2023/11/03 05:20:08;;;;;;;32.17;4.28;;;;;;;-146.27;95.19;83563.53;5024484;28;20024;-75
2023/11/03 05:22:34;;;;;;;23.23;4.60;;;;;;;-146.27;94.68;83497.22;5020990;28;20056;-75
2023/11/03 05:24:59;;;;;;;23.05;3.38;;;;;;;-146.27;94.88;83545.44;5035773;28;20044;-75
2023/11/03 05:27:25;;;;;;;22.83;4.90;;;;;;;-146.27;94.03;83432.91;5028631;28;20025;-75
2023/11/03 05:29:50;;;;;;;28.92;4.53;;;;;;;-146.27;94.21;83457.03;5020025;28;20622;-75
2023/11/03 05:32:16;;;;;;;29.38;3.83;;;;;;;-146.27;93.81;83424.88;5029648;28;20375;-76
2023/11/03 05:34:42;;;;;;;26.30;2.70;;;;;;;-146.27;94.67;83479.13;5032391;28;20102;-75
2023/11/03 05:37:10;;;;;;;34.60;3.33;;;;;;;-146.27;95.42;83489.19;5036119;28;20039;-75
2023/11/03 05:39:36;;;;;;;29.10;3.70;;;;;;;-146.27;95.55;83511.28;5030454;28;20401;-75
2023/11/03 05:42:04;;;;;;;25.73;2.42;;;;;;;-146.27;95.05;83481.16;5033259;28;20025;-75
2023/11/03 05:44:29;;;;;;;40.13;3.90;;;;;;;-146.27;95.16;83446.97;5027202;28;20493;-75
2023/11/03 05:46:55;;;;;;;35.67;3.67;;;;;;;-146.27;95.01;83525.34;5031136;28;20030;-75
2023/11/03 05:49:20;;;;;;;32.40;4.75;;;;;;;-146.27;94.92;83509.28;5036875;28;20034;-75
2023/11/03 05:51:46;;;;;;;27.10;4.90;;;;;;;-146.27;94.57;83509.28;5020845;28;20014;-74
2023/11/03 05:54:11;;;;;;;29.50;3.90;;;;;;;-146.27;94.28;83436.94;5033266;28;20072;-75
2023/11/03 05:56:36;;;;;;;25.73;4.60;;;;;;;-146.27;94.13;83489.19;5031323;28;20087;-74
2023/11/03 05:59:02;;;;;;;16.60;3.38;;;;;;;-146.27;93.60;83465.06;5030003;28;20020;-74
2023/11/03 06:01:32;;;;;;;27.35;3.42;;;;;;;-146.27;93.93;83438.94;5036443;28;20029;-74
2023/11/03 06:03:58;;;;;;;35.50;3.95;;;;;;;-146.27;93.84;83513.28;5027179;28;20029;-75
2023/11/03 06:06:24;;;;;;;34.35;4.20;;;;;;;-146.27;94.22;83497.22;5015258;28;20676;-74
2023/11/03 06:08:49;;;;;;;26.38;3.50;;;;;;;-146.27;94.03;83549.47;5020771;28;20033;-74
2023/11/03 06:11:15;;;;;;;30.00;4.22;;;;;;;-146.27;93.63;83505.25;5024457;28;20378;-74
2023/11/03 06:13:40;;;;;;;21.45;2.92;;;;;;;-146.27;93.36;83561.53;5020554;28;20530;-74
2023/11/03 06:16:06;;;;;;;10.23;2.67;;;;;;;-146.27;93.68;83573.56;5021549;28;20048;-74
2023/11/03 06:18:31;;;;;;;15.73;2.00;;;;;;;-146.27;93.54;83585.63;5029977;28;20532;-74
2023/11/03 06:20:57;;;;;;;18.55;3.13;;;;;;;-146.27;93.41;83657.97;5032026;28;20120;-74
2023/11/03 06:23:22;;;;;;;15.38;2.20;;;;;;;-146.27;94.19;83621.81;5026999;28;20060;-74
2023/11/03 06:25:48;;;;;;;16.80;2.67;;;;;;;-146.27;94.75;83621.81;5028334;28;20017;-74
2023/11/03 06:28:13;;;;;;;13.23;2.05;;;;;;;-146.27;93.48;83557.50;5019596;28;20037;-74
2023/11/03 06:30:39;;;;;;;12.23;2.22;;;;;;;-146.27;94.57;83653.94;5010634;28;20072;-76
2023/11/03 06:33:04;;;;;;;12.70;2.47;;;;;;;-146.27;94.97;83631.84;5036640;28;20123;-76
2023/11/03 06:35:30;;;;;;;18.13;3.08;;;;;;;-146.27;94.50;83537.41;5031173;28;20120;-77
2023/11/03 06:37:56;;;;;;;11.75;2.70;;;;;;;-146.27;94.55;83605.72;5028334;28;20038;-75
2023/11/03 06:40:21;;;;;;;17.77;3.03;;;;;;;-146.27;93.63;83553.47;5042374;28;20083;-76
2023/11/03 06:42:46;;;;;;;11.65;2.50;;;;;;;-146.27;93.79;83513.28;5032765;28;20021;-74
2023/11/03 06:45:12;;;;;;;17.45;3.20;;;;;;;-146.27;94.07;83609.75;5030055;28;20029;-75
2023/11/03 06:47:38;;;;;;;18.40;3.70;;;;;;;-146.27;93.42;83555.50;5030049;28;20485;-75
2023/11/03 06:50:08;;;;;;;18.90;2.92;;;;;;;-146.27;93.46;83537.41;5030205;28;20109;-74
2023/11/03 06:52:34;;;;;;;16.08;3.05;;;;;;;-146.27;93.26;83525.34;5024963;28;20035;-74
2023/11/03 06:55:00;;;;;;;17.60;3.35;;;;;;;-146.27;93.97;83617.78;5025740;28;20096;-75
2023/11/03 06:57:25;;;;;;;14.88;2.65;;;;;;;-146.27;93.52;83583.63;5025474;28;20120;-75
2023/11/03 06:59:51;;;;;;;20.65;3.75;;;;;;;-146.27;94.05;83655.97;5027366;28;20033;-74
2023/11/03 07:02:16;;;;;;;23.45;4.07;;;;;;;-146.27;94.64;83617.78;5029332;28;20021;-76
2023/11/03 07:04:44;;;;;;;12.45;3.40;;;;;;;-146.27;93.97;83583.63;5030985;28;20534;-78
2023/11/03 07:07:09;;;;;;;21.42;4.07;;;;;;;-146.27;94.30;83591.66;5030713;28;20017;-73
2023/11/03 07:09:37;;;;;;;22.88;3.45;;;;;;;-146.27;93.51;83529.38;5027093;28;20063;-74
2023/11/03 07:12:05;;;;;;;23.05;3.85;;;;;;;-146.27;93.55;83581.59;5027678;28;20371;-75
2023/11/03 07:14:31;;;;;;;17.40;2.95;;;;;;;-146.27;93.93;83613.75;5032205;28;20108;-75
2023/11/03 07:16:56;;;;;;;18.50;2.30;;;;;;;-146.27;95.10;83664.00;5025467;28;20176;-74
2023/11/03 07:19:22;;;;;;;16.48;2.88;;;;;;;-146.27;95.02;83609.75;5030829;28;20154;-76
2023/11/03 07:21:53;;;;;;;15.95;2.50;;;;;;;-146.27;94.13;83555.50;5028308;28;20033;-76
2023/11/03 07:24:21;;;;;;;27.30;3.15;;;;;;;-146.27;93.85;83569.56;5028085;28;20021;-74
2023/11/03 07:26:50;;;;;;;14.68;2.75;;;;;;;-146.27;93.31;83541.41;5028842;28;20021;-75
2023/11/03 07:29:16;;;;;;;27.90;3.45;;;;;;;-146.27;93.41;83597.69;5026671;28;20022;-75
2023/11/03 07:31:42;;;;;;;24.45;3.28;;;;;;;-146.27;93.08;83549.47;5026088;28;20033;-74
2023/11/03 07:34:07;;;;;;;18.95;3.33;;;;;;;-146.27;93.30;83569.56;5029306;28;20044;-74
2023/11/03 07:36:33;;;;;;;20.58;3.53;;;;;;;-146.27;92.95;83529.38;5028680;28;20087;-74
2023/11/03 07:38:58;;;;;;;26.10;3.42;;;;;;;-146.27;93.65;83617.78;5030165;28;20083;-74
2023/11/03 07:41:27;;;;;;;28.48;3.90;;;;;;;-146.27;93.72;83597.69;5028435;28;20055;-74
2023/11/03 07:43:53;;;;;;;18.15;2.55;;;;;;;-146.27;94.31;83621.81;5029408;28;20564;-74
2023/11/03 07:46:19;;;;;;;16.40;2.70;;;;;;;-146.27;93.49;83553.47;5038747;28;20041;-74
2023/11/03 07:48:45;;;;;;;19.05;2.30;;;;;;;-146.27;93.37;83497.22;5029810;28;20083;-73
2023/11/03 07:51:10;;;;;;;26.85;2.67;;;;;;;-146.27;93.57;83585.63;5029350;28;20112;-74
2023/11/03 07:53:36;;;;;;;18.38;2.53;;;;;;;-146.27;93.17;83529.38;5028877;28;20087;-73
2023/11/03 07:56:02;;;;;;;21.77;2.65;;;;;;;-146.27;93.25;83545.44;5029938;28;20033;-73
2023/11/03 07:58:27;;;;;;;20.42;3.22;;;;;;;-146.27;93.43;83539.41;5017515;28;20026;-73
2023/11/03 08:00:53;;;;;;;20.38;2.17;;;;;;;-146.27;93.95;83527.34;5023125;28;20028;-75
2023/11/03 08:03:18;;;;;;;32.10;3.45;;;;;;;-146.27;93.25;83485.16;5023741;28;20029;-75
2023/11/03 08:05:44;;;;;;;14.50;2.75;;;;;;;-146.27;92.97;83531.38;5010069;28;20037;-75
2023/11/03 08:08:10;;;;;;;19.35;2.55;;;;;;;-146.27;92.81;83509.28;5010169;28;20052;-74
2023/11/03 08:10:36;;;;;;;25.88;3.15;;;;;;;-146.27;92.64;83491.19;5009943;28;20030;-74
2023/11/03 08:13:01;;;;;;;26.60;2.70;;;;;;;-146.27;92.68;83444.97;5017314;28;20037;-74
2023/11/03 08:15:27;;;;;;;22.63;3.33;;;;;;;-146.27;93.60;83533.38;5026964;28;20033;-74
2023/11/03 08:17:52;;;;;;;33.30;4.03;;;;;;;-146.27;93.71;83513.28;5029402;28;20033;-75
2023/11/03 08:20:19;;;;;;;21.90;3.00;;;;;;;-146.27;93.52;83491.19;5029054;28;20139;-74
2023/11/03 08:22:47;;;;;;;23.00;3.17;;;;;;;-146.27;93.64;83485.16;5034578;28;20104;-73
2023/11/03 08:25:12;;;;;;;20.35;3.17;;;;;;;-146.27;93.04;83457.03;5041790;28;20397;-74
2023/11/03 08:27:38;;;;;;;15.00;2.55;;;;;;;-146.27;93.30;83487.16;5027640;28;20029;-74
2023/11/03 08:30:08;;;;;;;17.88;3.17;;;;;;;-146.27;93.15;83497.22;5030033;28;20029;-74
2023/11/03 08:32:36;;;;;;;19.70;2.63;;;;;;;-146.27;93.03;83521.34;5026946;28;20025;-74
2023/11/03 08:35:05;;;;;;;16.75;2.97;;;;;;;-146.27;92.77;83519.31;5035589;28;20017;-74
2023/11/03 08:37:32;;;;;;;21.05;2.60;;;;;;;-146.27;92.52;83489.19;5038534;28;20029;-73
2023/11/03 08:40:00;;;;;;;23.70;2.97;;;;;;;-146.27;93.01;83521.34;5045900;28;20021;-74
2023/11/03 08:42:26;;;;;;;14.90;2.10;;;;;;;-146.27;92.70;83501.22;5034273;28;20025;-74
2023/11/03 08:44:52;;;;;;;19.15;3.00;;;;;;;-146.27;92.79;83561.53;5047100;28;20033;-74
2023/11/03 08:47:20;;;;;;;13.25;2.22;;;;;;;-146.27;92.17;83483.16;5047240;28;20029;-74
2023/11/03 08:49:46;;;;;;;22.67;2.85;;;;;;;-146.27;93.20;83575.59;5046553;28;20397;-74
2023/11/03 08:52:12;;;;;;;15.68;2.20;;;;;;;-146.27;93.18;83553.47;5036177;28;20028;-74
2023/11/03 08:54:37;;;;;;;19.23;2.45;;;;;;;-146.27;92.71;83533.38;5048869;28;20028;-74
2023/11/03 08:57:05;;;;;;;22.30;3.22;;;;;;;-146.27;93.52;83565.53;5044844;28;20048;-74
2023/11/03 08:59:31;;;;;;;17.52;2.35;;;;;;;-146.27;93.51;83571.56;5025686;28;20037;-74
2023/11/03 09:01:56;;;;;;;18.35;2.30;;;;;;;-146.27;93.26;83551.47;5040676;28;20032;-73
2023/11/03 09:04:22;;;;;;;22.77;3.40;;;;;;;-146.27;92.97;83549.47;5046948;28;20099;-73
2023/11/03 09:06:48;;;;;;;17.42;2.60;;;;;;;-146.27;92.56;83493.19;5045916;28;20076;-74
2023/11/03 09:09:13;;;;;;;22.77;2.88;;;;;;;-146.27;92.70;83525.34;5026610;28;20051;-75
2023/11/03 09:11:41;;;;;;;13.07;2.50;;;;;;;-146.27;93.35;83531.38;5037252;28;20367;-72
2023/11/03 09:14:07;;;;;;;22.25;2.63;;;;;;;-146.27;93.41;83545.44;5036452;28;20461;-73
2023/11/03 09:16:33;;;;;;;22.67;2.78;;;;;;;-146.27;93.49;83495.22;5044912;28;20699;-72
2023/11/03 09:18:59;;;;;;;11.20;2.22;;;;;;;-146.27;93.26;83513.28;5044639;28;20026;-73
2023/11/03 09:21:25;;;;;;;21.70;2.83;;;;;;;-146.27;93.54;83487.16;5037872;28;20033;-71
2023/11/03 09:23:51;;;;;;;18.58;2.95;;;;;;;-146.27;92.38;83424.88;5034341;28;20436;-73
2023/11/03 09:26:17;;;;;;;14.07;2.58;;;;;;;-146.27;92.52;83503.25;5038094;28;20021;-71
2023/11/03 09:28:43;;;;;;;18.25;2.78;;;;;;;-146.27;92.76;83517.31;5031614;28;20029;-74
2023/11/03 09:31:08;;;;;;;20.80;2.35;;;;;;;-146.27;92.76;83521.34;5027492;28;20013;-73
2023/11/03 09:33:34;;;;;;;21.20;2.47;;;;;;;-146.27;92.59;83505.25;5042866;28;20035;-72
2023/11/03 09:36:02;;;;;;;13.27;2.83;;;;;;;-146.27;92.39;83531.38;5033673;28;20036;-73
2023/11/03 09:38:27;;;;;;;29.55;4.38;;;;;;;-146.27;91.94;83521.34;5047695;28;20028;-71
2023/11/03 09:40:54;;;;;;;15.80;2.47;;;;;;;-146.27;92.63;83555.50;5037878;28;20469;-73
2023/11/03 09:43:19;;;;;;;20.17;2.70;;;;;;;-146.27;92.22;83497.22;5041586;28;20108;-72
2023/11/03 09:45:46;;;;;;;16.15;2.22;;;;;;;-146.27;92.16;83567.53;5018990;28;20068;-73
2023/11/03 09:48:12;;;;;;;14.05;2.40;;;;;;;-146.27;92.15;83505.25;5035863;28;20502;-73
2023/11/03 09:50:38;;;;;;;19.55;2.30;;;;;;;-146.27;91.44;83485.16;5029942;28;20025;-73
2023/11/03 09:53:18;;;;;;;25.33;3.22;;;;;;;-146.27;92.02;83525.34;5028416;28;20477;-73
2023/11/03 09:55:44;;;;;;;20.60;2.47;;;;;;;-146.27;92.08;83465.06;5027763;28;20092;-74
2023/11/03 09:58:11;;;;;;;19.58;3.28;;;;;;;-146.27;92.24;83497.22;5034704;28;20367;-72
2023/11/03 10:00:37;;;;;;;14.48;2.22;;;;;;;-146.27;92.77;83573.56;5035691;28;20734;-72
2023/11/03 10:03:04;;;;;;;25.17;3.05;;;;;;;-146.27;93.36;83629.84;5050188;28;20025;-72
2023/11/03 10:05:30;;;;;;;17.77;2.88;;;;;;;-146.27;92.24;83507.25;5040421;28;20029;-72
2023/11/03 10:08:01;;;;;;;14.30;2.00;;;;;;;-146.27;93.02;83553.47;5044379;28;20037;-73
2023/11/03 10:10:33;;;;;;;20.52;2.47;;;;;;;-146.27;92.20;83487.16;5047215;28;20079;-70
2023/11/03 10:13:05;;;;;;;15.18;2.50;;;;;;;-146.27;92.20;83547.44;5032372;28;20440;-71
2023/11/03 10:15:30;;;;;;;12.48;2.03;;;;;;;-146.27;92.42;83499.22;5036749;28;20037;-72
2023/11/03 10:17:56;;;;;;;20.10;2.83;;;;;;;-146.27;92.50;83549.47;5030075;28;20128;-72
2023/11/03 10:20:25;;;;;;;17.77;1.95;;;;;;;-146.27;91.56;83461.06;5047693;28;20037;-72
2023/11/03 10:22:51;;;;;;;16.05;3.22;;;;;;;-146.27;91.06;83420.88;5032495;28;20037;-73
2023/11/03 10:25:18;;;;;;;10.30;2.53;;;;;;;-146.27;90.85;83432.91;5039229;28;20094;-73
2023/11/03 10:27:55;;;;;;;22.73;2.50;;;;;;;-146.27;90.78;83348.53;5028395;28;20406;-73
2023/11/03 10:30:24;;;;;;;23.40;2.67;;;;;;;-146.27;90.63;83388.72;5034665;28;20025;-72
2023/11/03 10:32:49;;;;;;;21.30;2.90;;;;;;;-146.27;91.21;83467.06;5047302;28;20162;-72
2023/11/03 10:35:15;;;;;;;17.08;3.45;;;;;;;-146.27;90.45;83344.50;5040153;28;20096;-71
2023/11/03 10:37:41;;;;;;;16.25;2.42;;;;;;;-146.27;89.47;83362.59;5046128;28;20400;-73
2023/11/03 10:40:13;;;;;;;11.80;1.73;;;;;;;-146.27;88.36;83318.38;5032464;28;20128;-73
2023/11/03 10:42:52;;;;;;;18.38;2.72;;;;;;;-146.27;87.81;83229.97;5046095;28;20035;-73
2023/11/03 10:45:20;;;;;;;11.18;1.95;;;;;;;-146.27;86.91;83268.16;5037584;28;20030;-72
2023/11/03 10:47:49;;;;;;;14.68;2.15;;;;;;;-146.27;87.10;83332.44;5038011;28;20025;-73
2023/11/03 10:50:15;;;;;;;8.80;3.08;;;;;;;-146.27;87.17;83364.59;5037257;28;20053;-74
2023/11/03 10:52:55;;;;;;;17.42;2.30;;;;;;;-146.27;87.46;83336.47;5032190;28;20043;-71
2023/11/03 10:55:36;;;;;;;20.90;2.20;;;;;;;-146.27;87.38;83296.28;5035380;28;20032;-73
2023/11/03 10:58:02;;;;;;;13.82;2.00;;;;;;;-146.27;86.19;83211.91;5043468;28;20021;-72
2023/11/03 11:00:49;;;;;;;21.85;3.60;;;;;;;-146.27;86.24;83236.00;5046308;28;20545;-72
2023/11/03 11:03:27;;;;;;;18.70;2.08;;;;;;;-146.27;85.88;83304.31;5030796;28;20029;-72
2023/11/03 11:06:03;;;;;;;15.02;1.95;;;;;;;-146.27;85.82;83240.03;5029178;28;20060;-73
2023/11/03 11:08:32;;;;;;;17.67;2.05;;;;;;;-146.27;85.19;83179.75;5027842;28;20021;-72